<?xml version="1.0" encoding="UTF-8" standalone="no" ?>
<gpx xmlns="http://www.topografix.com/GPX/1/1" xmlns:xsi="http://www.w3.org/2001/XMLSchema-instance" xsi:schemaLocation="http://www.topografix.com/GPX/1/1 http://www.topografix.com/GPX/1/1/gpx.xsd" version="1.1" creator="VisuGPX - https://www.visugpx.com">
  <metadata>
    <name>Vivy pl. d\\\'eau des Monteaux</name>
    <desc><![CDATA[départ base de loisir des monteaux à VIVY]]></desc>
  </metadata>
  <trk>
    <name><![CDATA[25-NOV-12 11:38:55]]></name>
    <trkseg>
      <trkpt lat="47.32799" lon="-0.09836">
        <ele>20.81</ele>
        <time>2012-11-25T07:25:42Z</time>
      </trkpt>
      <trkpt lat="47.32781" lon="-0.09834">
        <ele>25.61</ele>
        <time>2012-11-25T07:33:11Z</time>
      </trkpt>
      <trkpt lat="47.32771" lon="-0.0982">
        <ele>26.09</ele>
        <time>2012-11-25T07:34:28Z</time>
      </trkpt>
      <trkpt lat="47.32763" lon="-0.09789">
        <ele>24.65</ele>
        <time>2012-11-25T07:35:05Z</time>
      </trkpt>
      <trkpt lat="47.32753" lon="-0.09768">
        <ele>24.17</ele>
        <time>2012-11-25T07:35:40Z</time>
      </trkpt>
      <trkpt lat="47.32749" lon="-0.09747">
        <ele>25.13</ele>
        <time>2012-11-25T07:36:01Z</time>
      </trkpt>
      <trkpt lat="47.3275" lon="-0.09722">
        <ele>25.13</ele>
        <time>2012-11-25T07:37:31Z</time>
      </trkpt>
      <trkpt lat="47.32756" lon="-0.09691">
        <ele>25.13</ele>
        <time>2012-11-25T07:37:59Z</time>
      </trkpt>
      <trkpt lat="47.32764" lon="-0.09664">
        <ele>25.13</ele>
        <time>2012-11-25T07:38:29Z</time>
      </trkpt>
      <trkpt lat="47.32779" lon="-0.09636">
        <ele>25.61</ele>
        <time>2012-11-25T07:39:03Z</time>
      </trkpt>
      <trkpt lat="47.32771" lon="-0.09595">
        <ele>25.13</ele>
        <time>2012-11-25T07:39:42Z</time>
      </trkpt>
      <trkpt lat="47.32749" lon="-0.09552">
        <ele>26.57</ele>
        <time>2012-11-25T07:40:10Z</time>
      </trkpt>
      <trkpt lat="47.32737" lon="-0.09527">
        <ele>27.53</ele>
        <time>2012-11-25T07:40:44Z</time>
      </trkpt>
      <trkpt lat="47.32759" lon="-0.09494">
        <ele>26.09</ele>
        <time>2012-11-25T07:41:17Z</time>
      </trkpt>
      <trkpt lat="47.32786" lon="-0.09468">
        <ele>25.13</ele>
        <time>2012-11-25T07:41:45Z</time>
      </trkpt>
      <trkpt lat="47.32804" lon="-0.09453">
        <ele>24.65</ele>
        <time>2012-11-25T07:42:05Z</time>
      </trkpt>
      <trkpt lat="47.32827" lon="-0.09431">
        <ele>24.17</ele>
        <time>2012-11-25T07:42:26Z</time>
      </trkpt>
      <trkpt lat="47.32846" lon="-0.094">
        <ele>23.69</ele>
        <time>2012-11-25T07:42:56Z</time>
      </trkpt>
      <trkpt lat="47.32883" lon="-0.09394">
        <ele>22.73</ele>
        <time>2012-11-25T07:43:27Z</time>
      </trkpt>
      <trkpt lat="47.329" lon="-0.0942">
        <ele>22.73</ele>
        <time>2012-11-25T07:43:50Z</time>
      </trkpt>
      <trkpt lat="47.32919" lon="-0.09452">
        <ele>23.69</ele>
        <time>2012-11-25T07:44:14Z</time>
      </trkpt>
      <trkpt lat="47.32936" lon="-0.09481">
        <ele>23.69</ele>
        <time>2012-11-25T07:44:40Z</time>
      </trkpt>
      <trkpt lat="47.32952" lon="-0.095">
        <ele>22.73</ele>
        <time>2012-11-25T07:45:03Z</time>
      </trkpt>
      <trkpt lat="47.32973" lon="-0.09515">
        <ele>23.69</ele>
        <time>2012-11-25T07:45:21Z</time>
      </trkpt>
      <trkpt lat="47.32994" lon="-0.09512">
        <ele>23.21</ele>
        <time>2012-11-25T07:45:41Z</time>
      </trkpt>
      <trkpt lat="47.33017" lon="-0.09528">
        <ele>23.21</ele>
        <time>2012-11-25T07:45:59Z</time>
      </trkpt>
      <trkpt lat="47.33039" lon="-0.09534">
        <ele>22.73</ele>
        <time>2012-11-25T07:46:18Z</time>
      </trkpt>
      <trkpt lat="47.33059" lon="-0.09552">
        <ele>23.21</ele>
        <time>2012-11-25T07:46:41Z</time>
      </trkpt>
      <trkpt lat="47.33074" lon="-0.09584">
        <ele>23.69</ele>
        <time>2012-11-25T07:47:02Z</time>
      </trkpt>
      <trkpt lat="47.33068" lon="-0.09621">
        <ele>22.73</ele>
        <time>2012-11-25T07:47:23Z</time>
      </trkpt>
      <trkpt lat="47.33058" lon="-0.09645">
        <ele>22.25</ele>
        <time>2012-11-25T07:47:40Z</time>
      </trkpt>
      <trkpt lat="47.3305" lon="-0.09679">
        <ele>22.25</ele>
        <time>2012-11-25T07:48:02Z</time>
      </trkpt>
      <trkpt lat="47.33042" lon="-0.09716">
        <ele>21.77</ele>
        <time>2012-11-25T07:48:24Z</time>
      </trkpt>
      <trkpt lat="47.33047" lon="-0.09751">
        <ele>21.77</ele>
        <time>2012-11-25T07:48:45Z</time>
      </trkpt>
      <trkpt lat="47.33059" lon="-0.09779">
        <ele>21.29</ele>
        <time>2012-11-25T07:49:07Z</time>
      </trkpt>
      <trkpt lat="47.33075" lon="-0.09812">
        <ele>21.77</ele>
        <time>2012-11-25T07:49:28Z</time>
      </trkpt>
      <trkpt lat="47.33085" lon="-0.0984">
        <ele>22.25</ele>
        <time>2012-11-25T07:49:50Z</time>
      </trkpt>
      <trkpt lat="47.33089" lon="-0.09888">
        <ele>22.73</ele>
        <time>2012-11-25T07:50:15Z</time>
      </trkpt>
      <trkpt lat="47.33102" lon="-0.09918">
        <ele>22.25</ele>
        <time>2012-11-25T07:50:38Z</time>
      </trkpt>
      <trkpt lat="47.33113" lon="-0.09942">
        <ele>21.77</ele>
        <time>2012-11-25T07:50:55Z</time>
      </trkpt>
      <trkpt lat="47.33122" lon="-0.09968">
        <ele>21.77</ele>
        <time>2012-11-25T07:51:11Z</time>
      </trkpt>
      <trkpt lat="47.33134" lon="-0.0999">
        <ele>21.29</ele>
        <time>2012-11-25T07:51:28Z</time>
      </trkpt>
      <trkpt lat="47.33145" lon="-0.10022">
        <ele>22.25</ele>
        <time>2012-11-25T07:51:46Z</time>
      </trkpt>
      <trkpt lat="47.33163" lon="-0.10043">
        <ele>21.77</ele>
        <time>2012-11-25T07:52:11Z</time>
      </trkpt>
      <trkpt lat="47.33191" lon="-0.10057">
        <ele>22.25</ele>
        <time>2012-11-25T07:52:37Z</time>
      </trkpt>
      <trkpt lat="47.33222" lon="-0.1007">
        <ele>22.25</ele>
        <time>2012-11-25T07:53:06Z</time>
      </trkpt>
      <trkpt lat="47.33251" lon="-0.10089">
        <ele>21.77</ele>
        <time>2012-11-25T07:53:36Z</time>
      </trkpt>
      <trkpt lat="47.33281" lon="-0.10105">
        <ele>20.81</ele>
        <time>2012-11-25T07:54:05Z</time>
      </trkpt>
      <trkpt lat="47.33315" lon="-0.10126">
        <ele>21.29</ele>
        <time>2012-11-25T07:54:34Z</time>
      </trkpt>
      <trkpt lat="47.33346" lon="-0.10141">
        <ele>21.77</ele>
        <time>2012-11-25T07:55:05Z</time>
      </trkpt>
      <trkpt lat="47.33375" lon="-0.10155">
        <ele>22.25</ele>
        <time>2012-11-25T07:55:32Z</time>
      </trkpt>
      <trkpt lat="47.33395" lon="-0.10163">
        <ele>22.73</ele>
        <time>2012-11-25T07:55:53Z</time>
      </trkpt>
      <trkpt lat="47.3342" lon="-0.10181">
        <ele>22.73</ele>
        <time>2012-11-25T07:56:14Z</time>
      </trkpt>
      <trkpt lat="47.33443" lon="-0.10199">
        <ele>21.29</ele>
        <time>2012-11-25T07:56:42Z</time>
      </trkpt>
      <trkpt lat="47.33468" lon="-0.10219">
        <ele>20.81</ele>
        <time>2012-11-25T07:57:09Z</time>
      </trkpt>
      <trkpt lat="47.33499" lon="-0.10243">
        <ele>21.29</ele>
        <time>2012-11-25T07:57:43Z</time>
      </trkpt>
      <trkpt lat="47.33523" lon="-0.10272">
        <ele>22.25</ele>
        <time>2012-11-25T07:58:13Z</time>
      </trkpt>
      <trkpt lat="47.33543" lon="-0.10294">
        <ele>21.29</ele>
        <time>2012-11-25T07:58:38Z</time>
      </trkpt>
      <trkpt lat="47.33568" lon="-0.10315">
        <ele>22.25</ele>
        <time>2012-11-25T07:59:08Z</time>
      </trkpt>
      <trkpt lat="47.33595" lon="-0.10339">
        <ele>21.29</ele>
        <time>2012-11-25T07:59:38Z</time>
      </trkpt>
      <trkpt lat="47.33614" lon="-0.10379">
        <ele>20.32</ele>
        <time>2012-11-25T08:00:09Z</time>
      </trkpt>
      <trkpt lat="47.33639" lon="-0.10435">
        <ele>20.32</ele>
        <time>2012-11-25T08:00:47Z</time>
      </trkpt>
      <trkpt lat="47.33656" lon="-0.1042">
        <ele>19.36</ele>
        <time>2012-11-25T08:01:24Z</time>
      </trkpt>
      <trkpt lat="47.33691" lon="-0.10383">
        <ele>18.88</ele>
        <time>2012-11-25T08:02:02Z</time>
      </trkpt>
      <trkpt lat="47.33728" lon="-0.10345">
        <ele>18.4</ele>
        <time>2012-11-25T08:02:45Z</time>
      </trkpt>
      <trkpt lat="47.33768" lon="-0.10308">
        <ele>17.92</ele>
        <time>2012-11-25T08:03:15Z</time>
      </trkpt>
      <trkpt lat="47.33792" lon="-0.10283">
        <ele>17.92</ele>
        <time>2012-11-25T08:03:42Z</time>
      </trkpt>
      <trkpt lat="47.33821" lon="-0.10262">
        <ele>17.44</ele>
        <time>2012-11-25T08:04:04Z</time>
      </trkpt>
      <trkpt lat="47.33851" lon="-0.10238">
        <ele>17.92</ele>
        <time>2012-11-25T08:04:35Z</time>
      </trkpt>
      <trkpt lat="47.33885" lon="-0.10205">
        <ele>17.44</ele>
        <time>2012-11-25T08:05:10Z</time>
      </trkpt>
      <trkpt lat="47.33918" lon="-0.1018">
        <ele>19.36</ele>
        <time>2012-11-25T08:05:49Z</time>
      </trkpt>
      <trkpt lat="47.3394" lon="-0.10201">
        <ele>19.36</ele>
        <time>2012-11-25T08:06:11Z</time>
      </trkpt>
      <trkpt lat="47.33956" lon="-0.10229">
        <ele>18.88</ele>
        <time>2012-11-25T08:06:35Z</time>
      </trkpt>
      <trkpt lat="47.33971" lon="-0.10275">
        <ele>18.88</ele>
        <time>2012-11-25T08:07:05Z</time>
      </trkpt>
      <trkpt lat="47.33994" lon="-0.10322">
        <ele>19.36</ele>
        <time>2012-11-25T08:07:39Z</time>
      </trkpt>
      <trkpt lat="47.34007" lon="-0.10358">
        <ele>19.36</ele>
        <time>2012-11-25T08:08:06Z</time>
      </trkpt>
      <trkpt lat="47.34016" lon="-0.10401">
        <ele>18.88</ele>
        <time>2012-11-25T08:08:38Z</time>
      </trkpt>
      <trkpt lat="47.34018" lon="-0.1043">
        <ele>17.92</ele>
        <time>2012-11-25T08:08:56Z</time>
      </trkpt>
      <trkpt lat="47.34035" lon="-0.10447">
        <ele>18.88</ele>
        <time>2012-11-25T08:09:17Z</time>
      </trkpt>
      <trkpt lat="47.3405" lon="-0.10477">
        <ele>18.88</ele>
        <time>2012-11-25T08:09:38Z</time>
      </trkpt>
      <trkpt lat="47.34068" lon="-0.10511">
        <ele>19.36</ele>
        <time>2012-11-25T08:10:05Z</time>
      </trkpt>
      <trkpt lat="47.34085" lon="-0.10539">
        <ele>19.84</ele>
        <time>2012-11-25T08:10:28Z</time>
      </trkpt>
      <trkpt lat="47.34103" lon="-0.10565">
        <ele>18.88</ele>
        <time>2012-11-25T08:10:49Z</time>
      </trkpt>
      <trkpt lat="47.34125" lon="-0.10594">
        <ele>18.88</ele>
        <time>2012-11-25T08:11:15Z</time>
      </trkpt>
      <trkpt lat="47.34141" lon="-0.1062">
        <ele>19.36</ele>
        <time>2012-11-25T08:11:39Z</time>
      </trkpt>
      <trkpt lat="47.34158" lon="-0.10643">
        <ele>18.4</ele>
        <time>2012-11-25T08:11:59Z</time>
      </trkpt>
      <trkpt lat="47.34174" lon="-0.10666">
        <ele>17.92</ele>
        <time>2012-11-25T08:12:19Z</time>
      </trkpt>
      <trkpt lat="47.34196" lon="-0.10695">
        <ele>17.92</ele>
        <time>2012-11-25T08:12:45Z</time>
      </trkpt>
      <trkpt lat="47.34193" lon="-0.10721">
        <ele>16.96</ele>
        <time>2012-11-25T08:13:13Z</time>
      </trkpt>
      <trkpt lat="47.34166" lon="-0.10751">
        <ele>15.52</ele>
        <time>2012-11-25T08:13:43Z</time>
      </trkpt>
      <trkpt lat="47.34137" lon="-0.10785">
        <ele>15.52</ele>
        <time>2012-11-25T08:14:12Z</time>
      </trkpt>
      <trkpt lat="47.34115" lon="-0.10809">
        <ele>16</ele>
        <time>2012-11-25T08:14:37Z</time>
      </trkpt>
      <trkpt lat="47.3409" lon="-0.10838">
        <ele>16</ele>
        <time>2012-11-25T08:15:03Z</time>
      </trkpt>
      <trkpt lat="47.34063" lon="-0.10878">
        <ele>16</ele>
        <time>2012-11-25T08:15:39Z</time>
      </trkpt>
      <trkpt lat="47.34037" lon="-0.10907">
        <ele>16</ele>
        <time>2012-11-25T08:16:09Z</time>
      </trkpt>
      <trkpt lat="47.34013" lon="-0.10942">
        <ele>15.52</ele>
        <time>2012-11-25T08:16:35Z</time>
      </trkpt>
      <trkpt lat="47.34006" lon="-0.1098">
        <ele>16.48</ele>
        <time>2012-11-25T08:17:00Z</time>
      </trkpt>
      <trkpt lat="47.33992" lon="-0.11007">
        <ele>16.96</ele>
        <time>2012-11-25T08:17:17Z</time>
      </trkpt>
      <trkpt lat="47.33976" lon="-0.11032">
        <ele>16.48</ele>
        <time>2012-11-25T08:17:35Z</time>
      </trkpt>
      <trkpt lat="47.33961" lon="-0.11051">
        <ele>16.48</ele>
        <time>2012-11-25T08:17:53Z</time>
      </trkpt>
      <trkpt lat="47.33947" lon="-0.11073">
        <ele>16.48</ele>
        <time>2012-11-25T08:18:11Z</time>
      </trkpt>
      <trkpt lat="47.3393" lon="-0.11096">
        <ele>16</ele>
        <time>2012-11-25T08:18:29Z</time>
      </trkpt>
      <trkpt lat="47.33913" lon="-0.11112">
        <ele>16.96</ele>
        <time>2012-11-25T08:18:47Z</time>
      </trkpt>
      <trkpt lat="47.339" lon="-0.11135">
        <ele>16.96</ele>
        <time>2012-11-25T08:19:06Z</time>
      </trkpt>
      <trkpt lat="47.3388" lon="-0.11155">
        <ele>16.48</ele>
        <time>2012-11-25T08:19:25Z</time>
      </trkpt>
      <trkpt lat="47.33862" lon="-0.11175">
        <ele>16.48</ele>
        <time>2012-11-25T08:19:42Z</time>
      </trkpt>
      <trkpt lat="47.3385" lon="-0.11193">
        <ele>16.48</ele>
        <time>2012-11-25T08:19:59Z</time>
      </trkpt>
      <trkpt lat="47.33833" lon="-0.11215">
        <ele>16</ele>
        <time>2012-11-25T08:20:16Z</time>
      </trkpt>
      <trkpt lat="47.33817" lon="-0.11238">
        <ele>16</ele>
        <time>2012-11-25T08:20:39Z</time>
      </trkpt>
      <trkpt lat="47.33797" lon="-0.11273">
        <ele>16.48</ele>
        <time>2012-11-25T08:21:06Z</time>
      </trkpt>
      <trkpt lat="47.33778" lon="-0.11292">
        <ele>16.48</ele>
        <time>2012-11-25T08:21:29Z</time>
      </trkpt>
      <trkpt lat="47.3376" lon="-0.11324">
        <ele>17.44</ele>
        <time>2012-11-25T08:21:48Z</time>
      </trkpt>
      <trkpt lat="47.33769" lon="-0.11346">
        <ele>17.44</ele>
        <time>2012-11-25T08:22:20Z</time>
      </trkpt>
      <trkpt lat="47.33784" lon="-0.11365">
        <ele>17.92</ele>
        <time>2012-11-25T08:22:38Z</time>
      </trkpt>
      <trkpt lat="47.33796" lon="-0.11384">
        <ele>17.92</ele>
        <time>2012-11-25T08:22:54Z</time>
      </trkpt>
      <trkpt lat="47.33811" lon="-0.11403">
        <ele>17.44</ele>
        <time>2012-11-25T08:23:11Z</time>
      </trkpt>
      <trkpt lat="47.33825" lon="-0.11423">
        <ele>16.96</ele>
        <time>2012-11-25T08:23:27Z</time>
      </trkpt>
      <trkpt lat="47.3384" lon="-0.11454">
        <ele>17.44</ele>
        <time>2012-11-25T08:23:47Z</time>
      </trkpt>
      <trkpt lat="47.33852" lon="-0.11477">
        <ele>17.44</ele>
        <time>2012-11-25T08:24:04Z</time>
      </trkpt>
      <trkpt lat="47.33869" lon="-0.11502">
        <ele>17.92</ele>
        <time>2012-11-25T08:24:25Z</time>
      </trkpt>
      <trkpt lat="47.33887" lon="-0.11531">
        <ele>17.92</ele>
        <time>2012-11-25T08:24:46Z</time>
      </trkpt>
      <trkpt lat="47.33907" lon="-0.11563">
        <ele>18.4</ele>
        <time>2012-11-25T08:25:10Z</time>
      </trkpt>
      <trkpt lat="47.33928" lon="-0.11593">
        <ele>18.4</ele>
        <time>2012-11-25T08:25:36Z</time>
      </trkpt>
      <trkpt lat="47.33952" lon="-0.1162">
        <ele>18.4</ele>
        <time>2012-11-25T08:26:02Z</time>
      </trkpt>
      <trkpt lat="47.33973" lon="-0.11631">
        <ele>17.44</ele>
        <time>2012-11-25T08:26:24Z</time>
      </trkpt>
      <trkpt lat="47.3399" lon="-0.11619">
        <ele>18.4</ele>
        <time>2012-11-25T08:26:47Z</time>
      </trkpt>
      <trkpt lat="47.34007" lon="-0.11601">
        <ele>17.92</ele>
        <time>2012-11-25T08:27:04Z</time>
      </trkpt>
      <trkpt lat="47.34032" lon="-0.11594">
        <ele>17.92</ele>
        <time>2012-11-25T08:27:21Z</time>
      </trkpt>
      <trkpt lat="47.34055" lon="-0.11585">
        <ele>17.44</ele>
        <time>2012-11-25T08:27:38Z</time>
      </trkpt>
      <trkpt lat="47.3408" lon="-0.11584">
        <ele>17.92</ele>
        <time>2012-11-25T08:27:56Z</time>
      </trkpt>
      <trkpt lat="47.341" lon="-0.11583">
        <ele>17.44</ele>
        <time>2012-11-25T08:28:12Z</time>
      </trkpt>
      <trkpt lat="47.34125" lon="-0.11586">
        <ele>18.4</ele>
        <time>2012-11-25T08:28:32Z</time>
      </trkpt>
      <trkpt lat="47.34144" lon="-0.11583">
        <ele>18.4</ele>
        <time>2012-11-25T08:28:49Z</time>
      </trkpt>
      <trkpt lat="47.34171" lon="-0.11587">
        <ele>18.88</ele>
        <time>2012-11-25T08:29:14Z</time>
      </trkpt>
      <trkpt lat="47.34201" lon="-0.11588">
        <ele>20.32</ele>
        <time>2012-11-25T08:29:34Z</time>
      </trkpt>
      <trkpt lat="47.34228" lon="-0.11589">
        <ele>19.84</ele>
        <time>2012-11-25T08:30:03Z</time>
      </trkpt>
      <trkpt lat="47.34267" lon="-0.11593">
        <ele>19.36</ele>
        <time>2012-11-25T08:30:36Z</time>
      </trkpt>
      <trkpt lat="47.34298" lon="-0.11584">
        <ele>19.84</ele>
        <time>2012-11-25T08:31:01Z</time>
      </trkpt>
      <trkpt lat="47.34334" lon="-0.11564">
        <ele>18.88</ele>
        <time>2012-11-25T08:31:44Z</time>
      </trkpt>
      <trkpt lat="47.34384" lon="-0.11546">
        <ele>18.88</ele>
        <time>2012-11-25T08:32:36Z</time>
      </trkpt>
      <trkpt lat="47.34434" lon="-0.11523">
        <ele>19.36</ele>
        <time>2012-11-25T08:33:15Z</time>
      </trkpt>
      <trkpt lat="47.3446" lon="-0.11506">
        <ele>19.36</ele>
        <time>2012-11-25T08:33:41Z</time>
      </trkpt>
      <trkpt lat="47.34461" lon="-0.11481">
        <ele>19.36</ele>
        <time>2012-11-25T08:34:02Z</time>
      </trkpt>
      <trkpt lat="47.3445" lon="-0.11466">
        <ele>19.36</ele>
        <time>2012-11-25T08:34:23Z</time>
      </trkpt>
      <trkpt lat="47.34432" lon="-0.11437">
        <ele>19.84</ele>
        <time>2012-11-25T08:34:45Z</time>
      </trkpt>
      <trkpt lat="47.34416" lon="-0.11416">
        <ele>19.36</ele>
        <time>2012-11-25T08:35:04Z</time>
      </trkpt>
      <trkpt lat="47.34401" lon="-0.11379">
        <ele>19.84</ele>
        <time>2012-11-25T08:35:25Z</time>
      </trkpt>
      <trkpt lat="47.34386" lon="-0.11355">
        <ele>19.36</ele>
        <time>2012-11-25T08:35:44Z</time>
      </trkpt>
      <trkpt lat="47.34376" lon="-0.11321">
        <ele>19.84</ele>
        <time>2012-11-25T08:36:01Z</time>
      </trkpt>
      <trkpt lat="47.34365" lon="-0.11295">
        <ele>19.84</ele>
        <time>2012-11-25T08:36:19Z</time>
      </trkpt>
      <trkpt lat="47.34354" lon="-0.11269">
        <ele>19.84</ele>
        <time>2012-11-25T08:36:36Z</time>
      </trkpt>
      <trkpt lat="47.34342" lon="-0.11243">
        <ele>19.36</ele>
        <time>2012-11-25T08:36:51Z</time>
      </trkpt>
      <trkpt lat="47.3433" lon="-0.11219">
        <ele>19.84</ele>
        <time>2012-11-25T08:37:08Z</time>
      </trkpt>
      <trkpt lat="47.34318" lon="-0.11192">
        <ele>19.84</ele>
        <time>2012-11-25T08:37:26Z</time>
      </trkpt>
      <trkpt lat="47.34307" lon="-0.11167">
        <ele>19.84</ele>
        <time>2012-11-25T08:37:49Z</time>
      </trkpt>
      <trkpt lat="47.34306" lon="-0.11131">
        <ele>19.36</ele>
        <time>2012-11-25T08:38:07Z</time>
      </trkpt>
      <trkpt lat="47.34317" lon="-0.1112">
        <ele>19.84</ele>
        <time>2012-11-25T08:41:00Z</time>
      </trkpt>
      <trkpt lat="47.34321" lon="-0.11085">
        <ele>19.84</ele>
        <time>2012-11-25T08:41:36Z</time>
      </trkpt>
      <trkpt lat="47.34324" lon="-0.1106">
        <ele>19.84</ele>
        <time>2012-11-25T08:41:53Z</time>
      </trkpt>
      <trkpt lat="47.34327" lon="-0.11031">
        <ele>19.84</ele>
        <time>2012-11-25T08:42:10Z</time>
      </trkpt>
      <trkpt lat="47.34332" lon="-0.11003">
        <ele>20.81</ele>
        <time>2012-11-25T08:42:28Z</time>
      </trkpt>
      <trkpt lat="47.34333" lon="-0.10974">
        <ele>20.32</ele>
        <time>2012-11-25T08:42:46Z</time>
      </trkpt>
      <trkpt lat="47.34332" lon="-0.10943">
        <ele>20.32</ele>
        <time>2012-11-25T08:43:06Z</time>
      </trkpt>
      <trkpt lat="47.3433" lon="-0.10899">
        <ele>20.81</ele>
        <time>2012-11-25T08:43:32Z</time>
      </trkpt>
      <trkpt lat="47.34317" lon="-0.10864">
        <ele>20.81</ele>
        <time>2012-11-25T08:43:56Z</time>
      </trkpt>
      <trkpt lat="47.34307" lon="-0.10825">
        <ele>21.77</ele>
        <time>2012-11-25T08:44:24Z</time>
      </trkpt>
      <trkpt lat="47.34298" lon="-0.10793">
        <ele>20.81</ele>
        <time>2012-11-25T08:44:48Z</time>
      </trkpt>
      <trkpt lat="47.34292" lon="-0.10762">
        <ele>21.29</ele>
        <time>2012-11-25T08:45:06Z</time>
      </trkpt>
      <trkpt lat="47.34289" lon="-0.10734">
        <ele>21.29</ele>
        <time>2012-11-25T08:45:24Z</time>
      </trkpt>
      <trkpt lat="47.34284" lon="-0.10702">
        <ele>21.29</ele>
        <time>2012-11-25T08:45:44Z</time>
      </trkpt>
      <trkpt lat="47.34276" lon="-0.1067">
        <ele>20.81</ele>
        <time>2012-11-25T08:46:02Z</time>
      </trkpt>
      <trkpt lat="47.34282" lon="-0.1064">
        <ele>20.32</ele>
        <time>2012-11-25T08:46:20Z</time>
      </trkpt>
      <trkpt lat="47.34298" lon="-0.10622">
        <ele>20.32</ele>
        <time>2012-11-25T08:46:40Z</time>
      </trkpt>
      <trkpt lat="47.34316" lon="-0.10603">
        <ele>20.32</ele>
        <time>2012-11-25T08:46:57Z</time>
      </trkpt>
      <trkpt lat="47.34331" lon="-0.1059">
        <ele>20.32</ele>
        <time>2012-11-25T08:47:13Z</time>
      </trkpt>
      <trkpt lat="47.34348" lon="-0.10574">
        <ele>19.84</ele>
        <time>2012-11-25T08:47:28Z</time>
      </trkpt>
      <trkpt lat="47.34351" lon="-0.1055">
        <ele>19.84</ele>
        <time>2012-11-25T08:47:43Z</time>
      </trkpt>
      <trkpt lat="47.34339" lon="-0.10527">
        <ele>20.32</ele>
        <time>2012-11-25T08:48:00Z</time>
      </trkpt>
      <trkpt lat="47.34331" lon="-0.10501">
        <ele>20.32</ele>
        <time>2012-11-25T08:48:16Z</time>
      </trkpt>
      <trkpt lat="47.34322" lon="-0.10479">
        <ele>20.32</ele>
        <time>2012-11-25T08:48:33Z</time>
      </trkpt>
      <trkpt lat="47.34314" lon="-0.10453">
        <ele>20.81</ele>
        <time>2012-11-25T08:48:49Z</time>
      </trkpt>
      <trkpt lat="47.34307" lon="-0.10427">
        <ele>20.81</ele>
        <time>2012-11-25T08:49:05Z</time>
      </trkpt>
      <trkpt lat="47.34299" lon="-0.10399">
        <ele>20.81</ele>
        <time>2012-11-25T08:49:23Z</time>
      </trkpt>
      <trkpt lat="47.34288" lon="-0.1037">
        <ele>21.77</ele>
        <time>2012-11-25T08:49:41Z</time>
      </trkpt>
      <trkpt lat="47.34283" lon="-0.10344">
        <ele>21.77</ele>
        <time>2012-11-25T08:49:57Z</time>
      </trkpt>
      <trkpt lat="47.34272" lon="-0.10314">
        <ele>21.29</ele>
        <time>2012-11-25T08:50:14Z</time>
      </trkpt>
      <trkpt lat="47.34262" lon="-0.10282">
        <ele>21.77</ele>
        <time>2012-11-25T08:50:34Z</time>
      </trkpt>
      <trkpt lat="47.34249" lon="-0.1026">
        <ele>21.29</ele>
        <time>2012-11-25T08:50:55Z</time>
      </trkpt>
      <trkpt lat="47.34243" lon="-0.10216">
        <ele>20.81</ele>
        <time>2012-11-25T08:51:21Z</time>
      </trkpt>
      <trkpt lat="47.34281" lon="-0.10184">
        <ele>20.81</ele>
        <time>2012-11-25T08:52:04Z</time>
      </trkpt>
      <trkpt lat="47.34313" lon="-0.10152">
        <ele>21.29</ele>
        <time>2012-11-25T08:52:38Z</time>
      </trkpt>
      <trkpt lat="47.34321" lon="-0.10107">
        <ele>20.81</ele>
        <time>2012-11-25T08:53:12Z</time>
      </trkpt>
      <trkpt lat="47.34304" lon="-0.10066">
        <ele>21.29</ele>
        <time>2012-11-25T08:53:39Z</time>
      </trkpt>
      <trkpt lat="47.34292" lon="-0.10034">
        <ele>20.81</ele>
        <time>2012-11-25T08:54:01Z</time>
      </trkpt>
      <trkpt lat="47.34281" lon="-0.09997">
        <ele>20.81</ele>
        <time>2012-11-25T08:54:22Z</time>
      </trkpt>
      <trkpt lat="47.34271" lon="-0.09966">
        <ele>20.81</ele>
        <time>2012-11-25T08:54:42Z</time>
      </trkpt>
      <trkpt lat="47.34261" lon="-0.09932">
        <ele>20.81</ele>
        <time>2012-11-25T08:54:59Z</time>
      </trkpt>
      <trkpt lat="47.34251" lon="-0.09909">
        <ele>21.29</ele>
        <time>2012-11-25T08:55:16Z</time>
      </trkpt>
      <trkpt lat="47.34244" lon="-0.09883">
        <ele>20.81</ele>
        <time>2012-11-25T08:55:32Z</time>
      </trkpt>
      <trkpt lat="47.34235" lon="-0.09856">
        <ele>20.81</ele>
        <time>2012-11-25T08:55:49Z</time>
      </trkpt>
      <trkpt lat="47.34225" lon="-0.0983">
        <ele>21.29</ele>
        <time>2012-11-25T08:56:07Z</time>
      </trkpt>
      <trkpt lat="47.34216" lon="-0.09799">
        <ele>21.29</ele>
        <time>2012-11-25T08:56:25Z</time>
      </trkpt>
      <trkpt lat="47.34208" lon="-0.09774">
        <ele>21.29</ele>
        <time>2012-11-25T08:56:43Z</time>
      </trkpt>
      <trkpt lat="47.34199" lon="-0.09747">
        <ele>21.29</ele>
        <time>2012-11-25T08:56:59Z</time>
      </trkpt>
      <trkpt lat="47.34189" lon="-0.09725">
        <ele>21.29</ele>
        <time>2012-11-25T08:57:14Z</time>
      </trkpt>
      <trkpt lat="47.34182" lon="-0.09697">
        <ele>21.29</ele>
        <time>2012-11-25T08:57:31Z</time>
      </trkpt>
      <trkpt lat="47.34188" lon="-0.09671">
        <ele>21.77</ele>
        <time>2012-11-25T08:57:49Z</time>
      </trkpt>
      <trkpt lat="47.34205" lon="-0.09652">
        <ele>21.29</ele>
        <time>2012-11-25T08:58:06Z</time>
      </trkpt>
      <trkpt lat="47.3422" lon="-0.09639">
        <ele>21.29</ele>
        <time>2012-11-25T08:58:22Z</time>
      </trkpt>
      <trkpt lat="47.34238" lon="-0.09621">
        <ele>21.77</ele>
        <time>2012-11-25T08:58:38Z</time>
      </trkpt>
      <trkpt lat="47.34253" lon="-0.09605">
        <ele>21.77</ele>
        <time>2012-11-25T08:58:54Z</time>
      </trkpt>
      <trkpt lat="47.34271" lon="-0.09586">
        <ele>21.77</ele>
        <time>2012-11-25T08:59:11Z</time>
      </trkpt>
      <trkpt lat="47.34285" lon="-0.09572">
        <ele>21.77</ele>
        <time>2012-11-25T08:59:28Z</time>
      </trkpt>
      <trkpt lat="47.34305" lon="-0.09552">
        <ele>21.29</ele>
        <time>2012-11-25T08:59:45Z</time>
      </trkpt>
      <trkpt lat="47.34318" lon="-0.09537">
        <ele>21.29</ele>
        <time>2012-11-25T09:00:02Z</time>
      </trkpt>
      <trkpt lat="47.34336" lon="-0.09519">
        <ele>20.81</ele>
        <time>2012-11-25T09:00:18Z</time>
      </trkpt>
      <trkpt lat="47.3435" lon="-0.09504">
        <ele>21.29</ele>
        <time>2012-11-25T09:00:35Z</time>
      </trkpt>
      <trkpt lat="47.34367" lon="-0.09483">
        <ele>21.29</ele>
        <time>2012-11-25T09:00:53Z</time>
      </trkpt>
      <trkpt lat="47.34378" lon="-0.09462">
        <ele>21.77</ele>
        <time>2012-11-25T09:01:10Z</time>
      </trkpt>
      <trkpt lat="47.34391" lon="-0.09435">
        <ele>20.81</ele>
        <time>2012-11-25T09:01:26Z</time>
      </trkpt>
      <trkpt lat="47.344" lon="-0.09411">
        <ele>20.81</ele>
        <time>2012-11-25T09:01:41Z</time>
      </trkpt>
      <trkpt lat="47.34408" lon="-0.09387">
        <ele>20.81</ele>
        <time>2012-11-25T09:01:56Z</time>
      </trkpt>
      <trkpt lat="47.34406" lon="-0.09363">
        <ele>20.81</ele>
        <time>2012-11-25T09:02:10Z</time>
      </trkpt>
      <trkpt lat="47.34394" lon="-0.09343">
        <ele>20.81</ele>
        <time>2012-11-25T09:02:26Z</time>
      </trkpt>
      <trkpt lat="47.34379" lon="-0.09321">
        <ele>21.29</ele>
        <time>2012-11-25T09:02:43Z</time>
      </trkpt>
      <trkpt lat="47.34368" lon="-0.09295">
        <ele>21.29</ele>
        <time>2012-11-25T09:03:02Z</time>
      </trkpt>
      <trkpt lat="47.34355" lon="-0.0927">
        <ele>21.77</ele>
        <time>2012-11-25T09:03:20Z</time>
      </trkpt>
      <trkpt lat="47.34346" lon="-0.09243">
        <ele>21.29</ele>
        <time>2012-11-25T09:03:38Z</time>
      </trkpt>
      <trkpt lat="47.34335" lon="-0.09217">
        <ele>21.29</ele>
        <time>2012-11-25T09:03:55Z</time>
      </trkpt>
      <trkpt lat="47.34322" lon="-0.09194">
        <ele>20.81</ele>
        <time>2012-11-25T09:04:12Z</time>
      </trkpt>
      <trkpt lat="47.34313" lon="-0.09169">
        <ele>21.29</ele>
        <time>2012-11-25T09:04:28Z</time>
      </trkpt>
      <trkpt lat="47.34303" lon="-0.09145">
        <ele>21.29</ele>
        <time>2012-11-25T09:04:44Z</time>
      </trkpt>
      <trkpt lat="47.34293" lon="-0.0912">
        <ele>20.81</ele>
        <time>2012-11-25T09:05:03Z</time>
      </trkpt>
      <trkpt lat="47.34275" lon="-0.09128">
        <ele>21.29</ele>
        <time>2012-11-25T09:05:21Z</time>
      </trkpt>
      <trkpt lat="47.34258" lon="-0.09145">
        <ele>22.25</ele>
        <time>2012-11-25T09:05:39Z</time>
      </trkpt>
      <trkpt lat="47.34241" lon="-0.09162">
        <ele>21.77</ele>
        <time>2012-11-25T09:05:53Z</time>
      </trkpt>
      <trkpt lat="47.34226" lon="-0.09175">
        <ele>21.77</ele>
        <time>2012-11-25T09:06:11Z</time>
      </trkpt>
      <trkpt lat="47.34208" lon="-0.09191">
        <ele>21.77</ele>
        <time>2012-11-25T09:06:29Z</time>
      </trkpt>
      <trkpt lat="47.34186" lon="-0.09211">
        <ele>21.29</ele>
        <time>2012-11-25T09:06:52Z</time>
      </trkpt>
      <trkpt lat="47.34169" lon="-0.09232">
        <ele>21.29</ele>
        <time>2012-11-25T09:07:11Z</time>
      </trkpt>
      <trkpt lat="47.34152" lon="-0.09253">
        <ele>21.29</ele>
        <time>2012-11-25T09:07:30Z</time>
      </trkpt>
      <trkpt lat="47.34132" lon="-0.09283">
        <ele>21.29</ele>
        <time>2012-11-25T09:07:53Z</time>
      </trkpt>
      <trkpt lat="47.3411" lon="-0.09302">
        <ele>20.81</ele>
        <time>2012-11-25T09:08:20Z</time>
      </trkpt>
      <trkpt lat="47.34085" lon="-0.0931">
        <ele>20.81</ele>
        <time>2012-11-25T09:08:41Z</time>
      </trkpt>
      <trkpt lat="47.34067" lon="-0.09324">
        <ele>21.29</ele>
        <time>2012-11-25T09:08:59Z</time>
      </trkpt>
      <trkpt lat="47.34048" lon="-0.09339">
        <ele>21.77</ele>
        <time>2012-11-25T09:09:18Z</time>
      </trkpt>
      <trkpt lat="47.34031" lon="-0.09353">
        <ele>21.77</ele>
        <time>2012-11-25T09:09:33Z</time>
      </trkpt>
      <trkpt lat="47.34015" lon="-0.09367">
        <ele>21.77</ele>
        <time>2012-11-25T09:09:48Z</time>
      </trkpt>
      <trkpt lat="47.33999" lon="-0.09381">
        <ele>22.25</ele>
        <time>2012-11-25T09:10:05Z</time>
      </trkpt>
      <trkpt lat="47.33982" lon="-0.09399">
        <ele>22.73</ele>
        <time>2012-11-25T09:10:21Z</time>
      </trkpt>
      <trkpt lat="47.33967" lon="-0.09418">
        <ele>21.77</ele>
        <time>2012-11-25T09:10:38Z</time>
      </trkpt>
      <trkpt lat="47.33954" lon="-0.09435">
        <ele>22.25</ele>
        <time>2012-11-25T09:10:55Z</time>
      </trkpt>
      <trkpt lat="47.33933" lon="-0.09444">
        <ele>22.25</ele>
        <time>2012-11-25T09:11:14Z</time>
      </trkpt>
      <trkpt lat="47.33912" lon="-0.09456">
        <ele>22.25</ele>
        <time>2012-11-25T09:11:32Z</time>
      </trkpt>
      <trkpt lat="47.33894" lon="-0.0947">
        <ele>22.25</ele>
        <time>2012-11-25T09:11:53Z</time>
      </trkpt>
      <trkpt lat="47.33869" lon="-0.09484">
        <ele>23.21</ele>
        <time>2012-11-25T09:12:12Z</time>
      </trkpt>
      <trkpt lat="47.33844" lon="-0.09491">
        <ele>24.17</ele>
        <time>2012-11-25T09:12:35Z</time>
      </trkpt>
      <trkpt lat="47.33823" lon="-0.09494">
        <ele>25.61</ele>
        <time>2012-11-25T09:13:00Z</time>
      </trkpt>
      <trkpt lat="47.33797" lon="-0.09499">
        <ele>26.57</ele>
        <time>2012-11-25T09:13:20Z</time>
      </trkpt>
      <trkpt lat="47.33773" lon="-0.09507">
        <ele>27.53</ele>
        <time>2012-11-25T09:13:44Z</time>
      </trkpt>
      <trkpt lat="47.33741" lon="-0.0952">
        <ele>27.05</ele>
        <time>2012-11-25T09:14:15Z</time>
      </trkpt>
      <trkpt lat="47.33715" lon="-0.09536">
        <ele>26.57</ele>
        <time>2012-11-25T09:14:37Z</time>
      </trkpt>
      <trkpt lat="47.33687" lon="-0.09549">
        <ele>26.09</ele>
        <time>2012-11-25T09:15:07Z</time>
      </trkpt>
      <trkpt lat="47.33692" lon="-0.09548">
        <ele>26.57</ele>
        <time>2012-11-25T09:16:02Z</time>
      </trkpt>
      <trkpt lat="47.33683" lon="-0.0955">
        <ele>26.57</ele>
        <time>2012-11-25T09:17:19Z</time>
      </trkpt>
      <trkpt lat="47.33666" lon="-0.09508">
        <ele>27.53</ele>
        <time>2012-11-25T09:23:09Z</time>
      </trkpt>
      <trkpt lat="47.33646" lon="-0.09461">
        <ele>27.05</ele>
        <time>2012-11-25T09:23:42Z</time>
      </trkpt>
      <trkpt lat="47.33616" lon="-0.09418">
        <ele>26.57</ele>
        <time>2012-11-25T09:24:17Z</time>
      </trkpt>
      <trkpt lat="47.33603" lon="-0.09383">
        <ele>25.61</ele>
        <time>2012-11-25T09:24:43Z</time>
      </trkpt>
      <trkpt lat="47.33592" lon="-0.09338">
        <ele>25.61</ele>
        <time>2012-11-25T09:25:11Z</time>
      </trkpt>
      <trkpt lat="47.3357" lon="-0.09295">
        <ele>25.61</ele>
        <time>2012-11-25T09:25:42Z</time>
      </trkpt>
      <trkpt lat="47.33557" lon="-0.09245">
        <ele>25.13</ele>
        <time>2012-11-25T09:26:15Z</time>
      </trkpt>
      <trkpt lat="47.33541" lon="-0.09204">
        <ele>25.13</ele>
        <time>2012-11-25T09:26:41Z</time>
      </trkpt>
      <trkpt lat="47.33525" lon="-0.09157">
        <ele>24.65</ele>
        <time>2012-11-25T09:27:10Z</time>
      </trkpt>
      <trkpt lat="47.33509" lon="-0.09128">
        <ele>25.13</ele>
        <time>2012-11-25T09:27:33Z</time>
      </trkpt>
      <trkpt lat="47.33491" lon="-0.09098">
        <ele>25.61</ele>
        <time>2012-11-25T09:27:57Z</time>
      </trkpt>
      <trkpt lat="47.33471" lon="-0.09064">
        <ele>25.61</ele>
        <time>2012-11-25T09:28:24Z</time>
      </trkpt>
      <trkpt lat="47.33453" lon="-0.09027">
        <ele>26.09</ele>
        <time>2012-11-25T09:28:49Z</time>
      </trkpt>
      <trkpt lat="47.3343" lon="-0.08989">
        <ele>26.09</ele>
        <time>2012-11-25T09:29:18Z</time>
      </trkpt>
      <trkpt lat="47.33406" lon="-0.0895">
        <ele>25.13</ele>
        <time>2012-11-25T09:29:49Z</time>
      </trkpt>
      <trkpt lat="47.33385" lon="-0.0892">
        <ele>25.13</ele>
        <time>2012-11-25T09:30:21Z</time>
      </trkpt>
      <trkpt lat="47.33353" lon="-0.08875">
        <ele>24.17</ele>
        <time>2012-11-25T09:30:52Z</time>
      </trkpt>
      <trkpt lat="47.3333" lon="-0.08844">
        <ele>24.17</ele>
        <time>2012-11-25T09:31:21Z</time>
      </trkpt>
      <trkpt lat="47.33312" lon="-0.08816">
        <ele>24.17</ele>
        <time>2012-11-25T09:31:43Z</time>
      </trkpt>
      <trkpt lat="47.33301" lon="-0.08797">
        <ele>24.17</ele>
        <time>2012-11-25T09:32:01Z</time>
      </trkpt>
      <trkpt lat="47.33315" lon="-0.08778">
        <ele>24.17</ele>
        <time>2012-11-25T09:32:18Z</time>
      </trkpt>
      <trkpt lat="47.3333" lon="-0.08758">
        <ele>24.17</ele>
        <time>2012-11-25T09:32:34Z</time>
      </trkpt>
      <trkpt lat="47.33347" lon="-0.08743">
        <ele>23.69</ele>
        <time>2012-11-25T09:32:51Z</time>
      </trkpt>
      <trkpt lat="47.33361" lon="-0.08723">
        <ele>23.69</ele>
        <time>2012-11-25T09:33:07Z</time>
      </trkpt>
      <trkpt lat="47.33373" lon="-0.08707">
        <ele>24.17</ele>
        <time>2012-11-25T09:33:22Z</time>
      </trkpt>
      <trkpt lat="47.33388" lon="-0.08688">
        <ele>23.69</ele>
        <time>2012-11-25T09:33:37Z</time>
      </trkpt>
      <trkpt lat="47.33394" lon="-0.08662">
        <ele>23.69</ele>
        <time>2012-11-25T09:33:53Z</time>
      </trkpt>
      <trkpt lat="47.33379" lon="-0.08641">
        <ele>24.17</ele>
        <time>2012-11-25T09:34:09Z</time>
      </trkpt>
      <trkpt lat="47.33364" lon="-0.08617">
        <ele>24.17</ele>
        <time>2012-11-25T09:34:26Z</time>
      </trkpt>
      <trkpt lat="47.33351" lon="-0.086">
        <ele>24.65</ele>
        <time>2012-11-25T09:34:43Z</time>
      </trkpt>
      <trkpt lat="47.33335" lon="-0.08575">
        <ele>24.17</ele>
        <time>2012-11-25T09:35:00Z</time>
      </trkpt>
      <trkpt lat="47.33322" lon="-0.08555">
        <ele>24.65</ele>
        <time>2012-11-25T09:35:15Z</time>
      </trkpt>
      <trkpt lat="47.33308" lon="-0.08537">
        <ele>24.17</ele>
        <time>2012-11-25T09:35:31Z</time>
      </trkpt>
      <trkpt lat="47.33294" lon="-0.08515">
        <ele>24.17</ele>
        <time>2012-11-25T09:35:48Z</time>
      </trkpt>
      <trkpt lat="47.3328" lon="-0.08496">
        <ele>24.65</ele>
        <time>2012-11-25T09:36:04Z</time>
      </trkpt>
      <trkpt lat="47.33266" lon="-0.08473">
        <ele>24.65</ele>
        <time>2012-11-25T09:36:20Z</time>
      </trkpt>
      <trkpt lat="47.33253" lon="-0.08453">
        <ele>23.69</ele>
        <time>2012-11-25T09:36:38Z</time>
      </trkpt>
      <trkpt lat="47.3324" lon="-0.08429">
        <ele>24.65</ele>
        <time>2012-11-25T09:36:54Z</time>
      </trkpt>
      <trkpt lat="47.33226" lon="-0.08408">
        <ele>24.65</ele>
        <time>2012-11-25T09:37:12Z</time>
      </trkpt>
      <trkpt lat="47.33214" lon="-0.08382">
        <ele>25.13</ele>
        <time>2012-11-25T09:37:27Z</time>
      </trkpt>
      <trkpt lat="47.33201" lon="-0.08356">
        <ele>24.65</ele>
        <time>2012-11-25T09:37:43Z</time>
      </trkpt>
      <trkpt lat="47.33187" lon="-0.08332">
        <ele>24.65</ele>
        <time>2012-11-25T09:38:03Z</time>
      </trkpt>
      <trkpt lat="47.33174" lon="-0.08305">
        <ele>25.13</ele>
        <time>2012-11-25T09:38:19Z</time>
      </trkpt>
      <trkpt lat="47.33161" lon="-0.08281">
        <ele>25.13</ele>
        <time>2012-11-25T09:38:36Z</time>
      </trkpt>
      <trkpt lat="47.33147" lon="-0.08258">
        <ele>25.13</ele>
        <time>2012-11-25T09:38:55Z</time>
      </trkpt>
      <trkpt lat="47.33131" lon="-0.08226">
        <ele>24.65</ele>
        <time>2012-11-25T09:39:14Z</time>
      </trkpt>
      <trkpt lat="47.33116" lon="-0.08199">
        <ele>25.13</ele>
        <time>2012-11-25T09:39:34Z</time>
      </trkpt>
      <trkpt lat="47.33103" lon="-0.08177">
        <ele>25.61</ele>
        <time>2012-11-25T09:39:51Z</time>
      </trkpt>
      <trkpt lat="47.3309" lon="-0.08154">
        <ele>24.65</ele>
        <time>2012-11-25T09:40:07Z</time>
      </trkpt>
      <trkpt lat="47.33077" lon="-0.08131">
        <ele>25.13</ele>
        <time>2012-11-25T09:40:23Z</time>
      </trkpt>
      <trkpt lat="47.33063" lon="-0.08105">
        <ele>25.13</ele>
        <time>2012-11-25T09:40:40Z</time>
      </trkpt>
      <trkpt lat="47.33049" lon="-0.08081">
        <ele>25.13</ele>
        <time>2012-11-25T09:40:57Z</time>
      </trkpt>
      <trkpt lat="47.33037" lon="-0.0806">
        <ele>24.65</ele>
        <time>2012-11-25T09:41:15Z</time>
      </trkpt>
      <trkpt lat="47.33023" lon="-0.08035">
        <ele>26.09</ele>
        <time>2012-11-25T09:41:33Z</time>
      </trkpt>
      <trkpt lat="47.3301" lon="-0.08012">
        <ele>25.61</ele>
        <time>2012-11-25T09:41:50Z</time>
      </trkpt>
      <trkpt lat="47.32997" lon="-0.07989">
        <ele>26.09</ele>
        <time>2012-11-25T09:42:06Z</time>
      </trkpt>
      <trkpt lat="47.32979" lon="-0.07981">
        <ele>26.09</ele>
        <time>2012-11-25T09:42:21Z</time>
      </trkpt>
      <trkpt lat="47.3296" lon="-0.07987">
        <ele>26.57</ele>
        <time>2012-11-25T09:42:36Z</time>
      </trkpt>
      <trkpt lat="47.32943" lon="-0.07999">
        <ele>26.57</ele>
        <time>2012-11-25T09:42:51Z</time>
      </trkpt>
      <trkpt lat="47.32926" lon="-0.08011">
        <ele>27.05</ele>
        <time>2012-11-25T09:43:06Z</time>
      </trkpt>
      <trkpt lat="47.32908" lon="-0.08022">
        <ele>27.05</ele>
        <time>2012-11-25T09:43:22Z</time>
      </trkpt>
      <trkpt lat="47.3289" lon="-0.08036">
        <ele>27.05</ele>
        <time>2012-11-25T09:43:40Z</time>
      </trkpt>
      <trkpt lat="47.32875" lon="-0.08049">
        <ele>26.57</ele>
        <time>2012-11-25T09:43:55Z</time>
      </trkpt>
      <trkpt lat="47.32859" lon="-0.08062">
        <ele>27.05</ele>
        <time>2012-11-25T09:44:11Z</time>
      </trkpt>
      <trkpt lat="47.32842" lon="-0.08075">
        <ele>27.05</ele>
        <time>2012-11-25T09:44:27Z</time>
      </trkpt>
      <trkpt lat="47.32823" lon="-0.08092">
        <ele>27.53</ele>
        <time>2012-11-25T09:44:52Z</time>
      </trkpt>
      <trkpt lat="47.32804" lon="-0.08108">
        <ele>27.53</ele>
        <time>2012-11-25T09:45:11Z</time>
      </trkpt>
      <trkpt lat="47.32787" lon="-0.08122">
        <ele>27.53</ele>
        <time>2012-11-25T09:45:26Z</time>
      </trkpt>
      <trkpt lat="47.32769" lon="-0.08134">
        <ele>27.05</ele>
        <time>2012-11-25T09:45:43Z</time>
      </trkpt>
      <trkpt lat="47.32747" lon="-0.08151">
        <ele>27.53</ele>
        <time>2012-11-25T09:46:07Z</time>
      </trkpt>
      <trkpt lat="47.32728" lon="-0.08173">
        <ele>27.53</ele>
        <time>2012-11-25T09:46:28Z</time>
      </trkpt>
      <trkpt lat="47.32707" lon="-0.0819">
        <ele>27.53</ele>
        <time>2012-11-25T09:46:48Z</time>
      </trkpt>
      <trkpt lat="47.32685" lon="-0.08209">
        <ele>28.5</ele>
        <time>2012-11-25T09:47:09Z</time>
      </trkpt>
      <trkpt lat="47.3266" lon="-0.08214">
        <ele>28.98</ele>
        <time>2012-11-25T09:47:28Z</time>
      </trkpt>
      <trkpt lat="47.32653" lon="-0.08182">
        <ele>28.98</ele>
        <time>2012-11-25T09:47:49Z</time>
      </trkpt>
      <trkpt lat="47.32645" lon="-0.08148">
        <ele>28.5</ele>
        <time>2012-11-25T09:48:10Z</time>
      </trkpt>
      <trkpt lat="47.32642" lon="-0.08115">
        <ele>28.02</ele>
        <time>2012-11-25T09:48:30Z</time>
      </trkpt>
      <trkpt lat="47.32639" lon="-0.0808">
        <ele>28.02</ele>
        <time>2012-11-25T09:48:48Z</time>
      </trkpt>
      <trkpt lat="47.32633" lon="-0.08047">
        <ele>28.02</ele>
        <time>2012-11-25T09:49:10Z</time>
      </trkpt>
      <trkpt lat="47.32627" lon="-0.08003">
        <ele>27.53</ele>
        <time>2012-11-25T09:49:35Z</time>
      </trkpt>
      <trkpt lat="47.32624" lon="-0.07973">
        <ele>27.53</ele>
        <time>2012-11-25T09:49:54Z</time>
      </trkpt>
      <trkpt lat="47.32621" lon="-0.07937">
        <ele>28.02</ele>
        <time>2012-11-25T09:50:14Z</time>
      </trkpt>
      <trkpt lat="47.32612" lon="-0.07906">
        <ele>28.02</ele>
        <time>2012-11-25T09:50:34Z</time>
      </trkpt>
      <trkpt lat="47.32613" lon="-0.07874">
        <ele>27.53</ele>
        <time>2012-11-25T09:51:42Z</time>
      </trkpt>
      <trkpt lat="47.32589" lon="-0.07851">
        <ele>27.53</ele>
        <time>2012-11-25T09:52:51Z</time>
      </trkpt>
      <trkpt lat="47.32563" lon="-0.07786">
        <ele>27.05</ele>
        <time>2012-11-25T09:53:31Z</time>
      </trkpt>
      <trkpt lat="47.32529" lon="-0.07737">
        <ele>27.05</ele>
        <time>2012-11-25T09:54:10Z</time>
      </trkpt>
      <trkpt lat="47.325" lon="-0.0771">
        <ele>26.57</ele>
        <time>2012-11-25T09:54:38Z</time>
      </trkpt>
      <trkpt lat="47.32478" lon="-0.07679">
        <ele>26.57</ele>
        <time>2012-11-25T09:55:04Z</time>
      </trkpt>
      <trkpt lat="47.32459" lon="-0.07665">
        <ele>26.57</ele>
        <time>2012-11-25T09:55:24Z</time>
      </trkpt>
      <trkpt lat="47.32444" lon="-0.07685">
        <ele>26.09</ele>
        <time>2012-11-25T09:56:06Z</time>
      </trkpt>
      <trkpt lat="47.32446" lon="-0.07654">
        <ele>26.09</ele>
        <time>2012-11-25T09:56:32Z</time>
      </trkpt>
      <trkpt lat="47.32425" lon="-0.07638">
        <ele>26.09</ele>
        <time>2012-11-25T09:56:52Z</time>
      </trkpt>
      <trkpt lat="47.32402" lon="-0.07643">
        <ele>25.61</ele>
        <time>2012-11-25T09:57:15Z</time>
      </trkpt>
      <trkpt lat="47.32376" lon="-0.07666">
        <ele>25.61</ele>
        <time>2012-11-25T09:57:37Z</time>
      </trkpt>
      <trkpt lat="47.32358" lon="-0.0768">
        <ele>25.61</ele>
        <time>2012-11-25T09:57:56Z</time>
      </trkpt>
      <trkpt lat="47.3234" lon="-0.077">
        <ele>25.61</ele>
        <time>2012-11-25T09:58:16Z</time>
      </trkpt>
      <trkpt lat="47.32319" lon="-0.07716">
        <ele>25.13</ele>
        <time>2012-11-25T09:58:36Z</time>
      </trkpt>
      <trkpt lat="47.32298" lon="-0.07733">
        <ele>25.13</ele>
        <time>2012-11-25T09:58:55Z</time>
      </trkpt>
      <trkpt lat="47.32279" lon="-0.07748">
        <ele>25.13</ele>
        <time>2012-11-25T09:59:12Z</time>
      </trkpt>
      <trkpt lat="47.32264" lon="-0.07763">
        <ele>24.17</ele>
        <time>2012-11-25T09:59:27Z</time>
      </trkpt>
      <trkpt lat="47.32245" lon="-0.07775">
        <ele>24.65</ele>
        <time>2012-11-25T09:59:43Z</time>
      </trkpt>
      <trkpt lat="47.3223" lon="-0.07788">
        <ele>24.17</ele>
        <time>2012-11-25T09:59:59Z</time>
      </trkpt>
      <trkpt lat="47.32212" lon="-0.078">
        <ele>24.17</ele>
        <time>2012-11-25T10:00:14Z</time>
      </trkpt>
      <trkpt lat="47.32197" lon="-0.07815">
        <ele>24.17</ele>
        <time>2012-11-25T10:00:29Z</time>
      </trkpt>
      <trkpt lat="47.32181" lon="-0.07826">
        <ele>24.65</ele>
        <time>2012-11-25T10:00:44Z</time>
      </trkpt>
      <trkpt lat="47.32166" lon="-0.0784">
        <ele>24.65</ele>
        <time>2012-11-25T10:00:59Z</time>
      </trkpt>
      <trkpt lat="47.32148" lon="-0.07853">
        <ele>24.65</ele>
        <time>2012-11-25T10:01:15Z</time>
      </trkpt>
      <trkpt lat="47.32147" lon="-0.07877">
        <ele>24.65</ele>
        <time>2012-11-25T10:01:31Z</time>
      </trkpt>
      <trkpt lat="47.32155" lon="-0.07903">
        <ele>25.13</ele>
        <time>2012-11-25T10:01:47Z</time>
      </trkpt>
      <trkpt lat="47.32164" lon="-0.07927">
        <ele>24.65</ele>
        <time>2012-11-25T10:02:04Z</time>
      </trkpt>
      <trkpt lat="47.32172" lon="-0.07953">
        <ele>25.61</ele>
        <time>2012-11-25T10:02:20Z</time>
      </trkpt>
      <trkpt lat="47.32179" lon="-0.07977">
        <ele>24.65</ele>
        <time>2012-11-25T10:02:36Z</time>
      </trkpt>
      <trkpt lat="47.3219" lon="-0.08004">
        <ele>25.13</ele>
        <time>2012-11-25T10:02:53Z</time>
      </trkpt>
      <trkpt lat="47.32197" lon="-0.08028">
        <ele>25.61</ele>
        <time>2012-11-25T10:03:10Z</time>
      </trkpt>
      <trkpt lat="47.32206" lon="-0.08055">
        <ele>25.61</ele>
        <time>2012-11-25T10:03:27Z</time>
      </trkpt>
      <trkpt lat="47.32213" lon="-0.08082">
        <ele>25.61</ele>
        <time>2012-11-25T10:03:44Z</time>
      </trkpt>
      <trkpt lat="47.32222" lon="-0.08109">
        <ele>25.61</ele>
        <time>2012-11-25T10:04:00Z</time>
      </trkpt>
      <trkpt lat="47.32228" lon="-0.08136">
        <ele>26.09</ele>
        <time>2012-11-25T10:04:17Z</time>
      </trkpt>
      <trkpt lat="47.32238" lon="-0.08164">
        <ele>25.61</ele>
        <time>2012-11-25T10:04:34Z</time>
      </trkpt>
      <trkpt lat="47.32245" lon="-0.0819">
        <ele>25.61</ele>
        <time>2012-11-25T10:04:51Z</time>
      </trkpt>
      <trkpt lat="47.32256" lon="-0.08217">
        <ele>25.61</ele>
        <time>2012-11-25T10:05:08Z</time>
      </trkpt>
      <trkpt lat="47.32263" lon="-0.08242">
        <ele>25.61</ele>
        <time>2012-11-25T10:05:25Z</time>
      </trkpt>
      <trkpt lat="47.32275" lon="-0.08267">
        <ele>26.09</ele>
        <time>2012-11-25T10:05:41Z</time>
      </trkpt>
      <trkpt lat="47.32293" lon="-0.08277">
        <ele>26.09</ele>
        <time>2012-11-25T10:05:57Z</time>
      </trkpt>
      <trkpt lat="47.32312" lon="-0.08289">
        <ele>25.61</ele>
        <time>2012-11-25T10:06:13Z</time>
      </trkpt>
      <trkpt lat="47.32327" lon="-0.08303">
        <ele>25.61</ele>
        <time>2012-11-25T10:06:28Z</time>
      </trkpt>
      <trkpt lat="47.32338" lon="-0.08324">
        <ele>25.61</ele>
        <time>2012-11-25T10:06:44Z</time>
      </trkpt>
      <trkpt lat="47.32348" lon="-0.08346">
        <ele>25.61</ele>
        <time>2012-11-25T10:07:01Z</time>
      </trkpt>
      <trkpt lat="47.32358" lon="-0.0837">
        <ele>25.61</ele>
        <time>2012-11-25T10:07:17Z</time>
      </trkpt>
      <trkpt lat="47.32347" lon="-0.08393">
        <ele>25.61</ele>
        <time>2012-11-25T10:07:32Z</time>
      </trkpt>
      <trkpt lat="47.3233" lon="-0.08405">
        <ele>26.09</ele>
        <time>2012-11-25T10:07:48Z</time>
      </trkpt>
      <trkpt lat="47.32326" lon="-0.08434">
        <ele>25.61</ele>
        <time>2012-11-25T10:08:07Z</time>
      </trkpt>
      <trkpt lat="47.32335" lon="-0.08462">
        <ele>25.61</ele>
        <time>2012-11-25T10:08:25Z</time>
      </trkpt>
      <trkpt lat="47.32331" lon="-0.08493">
        <ele>26.09</ele>
        <time>2012-11-25T10:08:46Z</time>
      </trkpt>
      <trkpt lat="47.32323" lon="-0.08525">
        <ele>26.09</ele>
        <time>2012-11-25T10:09:06Z</time>
      </trkpt>
      <trkpt lat="47.32311" lon="-0.08554">
        <ele>26.57</ele>
        <time>2012-11-25T10:09:24Z</time>
      </trkpt>
      <trkpt lat="47.32295" lon="-0.0856">
        <ele>25.61</ele>
        <time>2012-11-25T10:09:41Z</time>
      </trkpt>
      <trkpt lat="47.32272" lon="-0.08552">
        <ele>26.57</ele>
        <time>2012-11-25T10:10:00Z</time>
      </trkpt>
      <trkpt lat="47.32251" lon="-0.08549">
        <ele>26.09</ele>
        <time>2012-11-25T10:10:19Z</time>
      </trkpt>
      <trkpt lat="47.32233" lon="-0.08556">
        <ele>26.09</ele>
        <time>2012-11-25T10:10:35Z</time>
      </trkpt>
      <trkpt lat="47.32218" lon="-0.08573">
        <ele>26.09</ele>
        <time>2012-11-25T10:10:51Z</time>
      </trkpt>
      <trkpt lat="47.32203" lon="-0.0859">
        <ele>26.57</ele>
        <time>2012-11-25T10:11:06Z</time>
      </trkpt>
      <trkpt lat="47.32191" lon="-0.0861">
        <ele>26.09</ele>
        <time>2012-11-25T10:11:21Z</time>
      </trkpt>
      <trkpt lat="47.32178" lon="-0.08626">
        <ele>26.09</ele>
        <time>2012-11-25T10:11:36Z</time>
      </trkpt>
      <trkpt lat="47.32164" lon="-0.08643">
        <ele>27.05</ele>
        <time>2012-11-25T10:11:52Z</time>
      </trkpt>
      <trkpt lat="47.32152" lon="-0.08661">
        <ele>27.05</ele>
        <time>2012-11-25T10:12:08Z</time>
      </trkpt>
      <trkpt lat="47.32138" lon="-0.08679">
        <ele>27.05</ele>
        <time>2012-11-25T10:12:23Z</time>
      </trkpt>
      <trkpt lat="47.32126" lon="-0.08697">
        <ele>27.05</ele>
        <time>2012-11-25T10:12:39Z</time>
      </trkpt>
      <trkpt lat="47.32112" lon="-0.08716">
        <ele>27.53</ele>
        <time>2012-11-25T10:12:54Z</time>
      </trkpt>
      <trkpt lat="47.32097" lon="-0.08731">
        <ele>27.53</ele>
        <time>2012-11-25T10:13:10Z</time>
      </trkpt>
      <trkpt lat="47.32083" lon="-0.08747">
        <ele>27.53</ele>
        <time>2012-11-25T10:13:27Z</time>
      </trkpt>
      <trkpt lat="47.32067" lon="-0.08763">
        <ele>28.02</ele>
        <time>2012-11-25T10:13:43Z</time>
      </trkpt>
      <trkpt lat="47.32053" lon="-0.08779">
        <ele>28.02</ele>
        <time>2012-11-25T10:13:58Z</time>
      </trkpt>
      <trkpt lat="47.32038" lon="-0.08793">
        <ele>28.02</ele>
        <time>2012-11-25T10:14:15Z</time>
      </trkpt>
      <trkpt lat="47.32049" lon="-0.08816">
        <ele>28.5</ele>
        <time>2012-11-25T10:14:32Z</time>
      </trkpt>
      <trkpt lat="47.32065" lon="-0.08834">
        <ele>28.02</ele>
        <time>2012-11-25T10:14:55Z</time>
      </trkpt>
      <trkpt lat="47.3208" lon="-0.08854">
        <ele>28.5</ele>
        <time>2012-11-25T10:15:13Z</time>
      </trkpt>
      <trkpt lat="47.32095" lon="-0.08871">
        <ele>28.02</ele>
        <time>2012-11-25T10:15:30Z</time>
      </trkpt>
      <trkpt lat="47.32111" lon="-0.08887">
        <ele>28.98</ele>
        <time>2012-11-25T10:15:47Z</time>
      </trkpt>
      <trkpt lat="47.32127" lon="-0.08905">
        <ele>28.5</ele>
        <time>2012-11-25T10:16:04Z</time>
      </trkpt>
      <trkpt lat="47.32142" lon="-0.08923">
        <ele>28.5</ele>
        <time>2012-11-25T10:16:21Z</time>
      </trkpt>
      <trkpt lat="47.32158" lon="-0.08942">
        <ele>28.5</ele>
        <time>2012-11-25T10:16:39Z</time>
      </trkpt>
      <trkpt lat="47.32173" lon="-0.08964">
        <ele>28.02</ele>
        <time>2012-11-25T10:16:57Z</time>
      </trkpt>
      <trkpt lat="47.32191" lon="-0.0898">
        <ele>27.53</ele>
        <time>2012-11-25T10:17:16Z</time>
      </trkpt>
      <trkpt lat="47.32204" lon="-0.09003">
        <ele>28.02</ele>
        <time>2012-11-25T10:17:35Z</time>
      </trkpt>
      <trkpt lat="47.3222" lon="-0.09027">
        <ele>28.02</ele>
        <time>2012-11-25T10:17:53Z</time>
      </trkpt>
      <trkpt lat="47.32235" lon="-0.09051">
        <ele>28.5</ele>
        <time>2012-11-25T10:18:14Z</time>
      </trkpt>
      <trkpt lat="47.32249" lon="-0.09076">
        <ele>28.02</ele>
        <time>2012-11-25T10:18:35Z</time>
      </trkpt>
      <trkpt lat="47.32264" lon="-0.09096">
        <ele>28.02</ele>
        <time>2012-11-25T10:18:52Z</time>
      </trkpt>
      <trkpt lat="47.32276" lon="-0.09115">
        <ele>28.5</ele>
        <time>2012-11-25T10:19:09Z</time>
      </trkpt>
      <trkpt lat="47.3229" lon="-0.09139">
        <ele>28.5</ele>
        <time>2012-11-25T10:19:27Z</time>
      </trkpt>
      <trkpt lat="47.32303" lon="-0.09163">
        <ele>27.53</ele>
        <time>2012-11-25T10:19:44Z</time>
      </trkpt>
      <trkpt lat="47.32317" lon="-0.09181">
        <ele>27.53</ele>
        <time>2012-11-25T10:20:01Z</time>
      </trkpt>
      <trkpt lat="47.32329" lon="-0.09206">
        <ele>28.02</ele>
        <time>2012-11-25T10:20:18Z</time>
      </trkpt>
      <trkpt lat="47.32344" lon="-0.09225">
        <ele>28.02</ele>
        <time>2012-11-25T10:20:36Z</time>
      </trkpt>
      <trkpt lat="47.32356" lon="-0.09248">
        <ele>28.02</ele>
        <time>2012-11-25T10:20:53Z</time>
      </trkpt>
      <trkpt lat="47.3237" lon="-0.09265">
        <ele>28.02</ele>
        <time>2012-11-25T10:21:10Z</time>
      </trkpt>
      <trkpt lat="47.32384" lon="-0.09283">
        <ele>27.53</ele>
        <time>2012-11-25T10:21:27Z</time>
      </trkpt>
      <trkpt lat="47.32398" lon="-0.09299">
        <ele>28.02</ele>
        <time>2012-11-25T10:21:44Z</time>
      </trkpt>
      <trkpt lat="47.32412" lon="-0.09318">
        <ele>28.02</ele>
        <time>2012-11-25T10:22:00Z</time>
      </trkpt>
      <trkpt lat="47.32425" lon="-0.09344">
        <ele>28.02</ele>
        <time>2012-11-25T10:22:16Z</time>
      </trkpt>
      <trkpt lat="47.32438" lon="-0.09365">
        <ele>28.02</ele>
        <time>2012-11-25T10:22:34Z</time>
      </trkpt>
      <trkpt lat="47.32452" lon="-0.09383">
        <ele>27.53</ele>
        <time>2012-11-25T10:22:51Z</time>
      </trkpt>
      <trkpt lat="47.32466" lon="-0.09403">
        <ele>27.53</ele>
        <time>2012-11-25T10:23:07Z</time>
      </trkpt>
      <trkpt lat="47.32478" lon="-0.0942">
        <ele>27.53</ele>
        <time>2012-11-25T10:23:22Z</time>
      </trkpt>
      <trkpt lat="47.32491" lon="-0.09432">
        <ele>26.57</ele>
        <time>2012-11-25T10:23:56Z</time>
      </trkpt>
      <trkpt lat="47.32506" lon="-0.09412">
        <ele>26.57</ele>
        <time>2012-11-25T10:24:14Z</time>
      </trkpt>
      <trkpt lat="47.32522" lon="-0.09394">
        <ele>27.05</ele>
        <time>2012-11-25T10:24:31Z</time>
      </trkpt>
      <trkpt lat="47.32537" lon="-0.09377">
        <ele>27.05</ele>
        <time>2012-11-25T10:24:48Z</time>
      </trkpt>
      <trkpt lat="47.32552" lon="-0.0936">
        <ele>27.05</ele>
        <time>2012-11-25T10:25:04Z</time>
      </trkpt>
      <trkpt lat="47.32566" lon="-0.09344">
        <ele>27.05</ele>
        <time>2012-11-25T10:25:19Z</time>
      </trkpt>
      <trkpt lat="47.3258" lon="-0.09328">
        <ele>26.57</ele>
        <time>2012-11-25T10:25:33Z</time>
      </trkpt>
      <trkpt lat="47.32586" lon="-0.09302">
        <ele>26.57</ele>
        <time>2012-11-25T10:25:50Z</time>
      </trkpt>
      <trkpt lat="47.32597" lon="-0.09273">
        <ele>27.05</ele>
        <time>2012-11-25T10:26:09Z</time>
      </trkpt>
      <trkpt lat="47.32616" lon="-0.09252">
        <ele>27.05</ele>
        <time>2012-11-25T10:26:29Z</time>
      </trkpt>
      <trkpt lat="47.32635" lon="-0.09239">
        <ele>27.05</ele>
        <time>2012-11-25T10:26:46Z</time>
      </trkpt>
      <trkpt lat="47.32653" lon="-0.09226">
        <ele>26.57</ele>
        <time>2012-11-25T10:27:03Z</time>
      </trkpt>
      <trkpt lat="47.32671" lon="-0.09214">
        <ele>27.05</ele>
        <time>2012-11-25T10:27:19Z</time>
      </trkpt>
      <trkpt lat="47.32689" lon="-0.09205">
        <ele>26.57</ele>
        <time>2012-11-25T10:27:37Z</time>
      </trkpt>
      <trkpt lat="47.32707" lon="-0.09189">
        <ele>27.05</ele>
        <time>2012-11-25T10:27:54Z</time>
      </trkpt>
      <trkpt lat="47.32721" lon="-0.09167">
        <ele>26.57</ele>
        <time>2012-11-25T10:28:10Z</time>
      </trkpt>
      <trkpt lat="47.32739" lon="-0.0915">
        <ele>26.57</ele>
        <time>2012-11-25T10:28:26Z</time>
      </trkpt>
      <trkpt lat="47.32757" lon="-0.09144">
        <ele>26.57</ele>
        <time>2012-11-25T10:28:43Z</time>
      </trkpt>
      <trkpt lat="47.32773" lon="-0.09159">
        <ele>26.57</ele>
        <time>2012-11-25T10:29:00Z</time>
      </trkpt>
      <trkpt lat="47.32786" lon="-0.09188">
        <ele>27.05</ele>
        <time>2012-11-25T10:29:21Z</time>
      </trkpt>
      <trkpt lat="47.32801" lon="-0.09227">
        <ele>26.57</ele>
        <time>2012-11-25T10:29:44Z</time>
      </trkpt>
      <trkpt lat="47.32816" lon="-0.0926">
        <ele>27.05</ele>
        <time>2012-11-25T10:30:06Z</time>
      </trkpt>
      <trkpt lat="47.32828" lon="-0.09295">
        <ele>27.05</ele>
        <time>2012-11-25T10:30:29Z</time>
      </trkpt>
      <trkpt lat="47.32836" lon="-0.09328">
        <ele>27.53</ele>
        <time>2012-11-25T10:30:50Z</time>
      </trkpt>
      <trkpt lat="47.32854" lon="-0.09355">
        <ele>27.53</ele>
        <time>2012-11-25T10:31:14Z</time>
      </trkpt>
      <trkpt lat="47.32862" lon="-0.0939">
        <ele>27.05</ele>
        <time>2012-11-25T10:31:45Z</time>
      </trkpt>
      <trkpt lat="47.32844" lon="-0.09407">
        <ele>27.05</ele>
        <time>2012-11-25T10:32:06Z</time>
      </trkpt>
      <trkpt lat="47.32823" lon="-0.09425">
        <ele>27.05</ele>
        <time>2012-11-25T10:32:27Z</time>
      </trkpt>
      <trkpt lat="47.32805" lon="-0.09452">
        <ele>28.02</ele>
        <time>2012-11-25T10:32:49Z</time>
      </trkpt>
      <trkpt lat="47.32783" lon="-0.09466">
        <ele>28.98</ele>
        <time>2012-11-25T10:33:11Z</time>
      </trkpt>
      <trkpt lat="47.32764" lon="-0.09485">
        <ele>28.5</ele>
        <time>2012-11-25T10:33:33Z</time>
      </trkpt>
      <trkpt lat="47.32745" lon="-0.09514">
        <ele>29.94</ele>
        <time>2012-11-25T10:33:58Z</time>
      </trkpt>
      <trkpt lat="47.32741" lon="-0.09552">
        <ele>29.46</ele>
        <time>2012-11-25T10:34:28Z</time>
      </trkpt>
      <trkpt lat="47.3276" lon="-0.09573">
        <ele>28.5</ele>
        <time>2012-11-25T10:34:49Z</time>
      </trkpt>
      <trkpt lat="47.32775" lon="-0.09604">
        <ele>28.5</ele>
        <time>2012-11-25T10:35:11Z</time>
      </trkpt>
      <trkpt lat="47.32783" lon="-0.0964">
        <ele>27.53</ele>
        <time>2012-11-25T10:35:35Z</time>
      </trkpt>
      <trkpt lat="47.32763" lon="-0.09663">
        <ele>27.53</ele>
        <time>2012-11-25T10:35:53Z</time>
      </trkpt>
      <trkpt lat="47.32752" lon="-0.0969">
        <ele>26.57</ele>
        <time>2012-11-25T10:36:11Z</time>
      </trkpt>
      <trkpt lat="47.32744" lon="-0.09723">
        <ele>27.05</ele>
        <time>2012-11-25T10:36:30Z</time>
      </trkpt>
      <trkpt lat="47.32747" lon="-0.09754">
        <ele>27.05</ele>
        <time>2012-11-25T10:36:47Z</time>
      </trkpt>
      <trkpt lat="47.32757" lon="-0.0978">
        <ele>27.05</ele>
        <time>2012-11-25T10:37:04Z</time>
      </trkpt>
      <trkpt lat="47.32765" lon="-0.09806">
        <ele>27.05</ele>
        <time>2012-11-25T10:37:27Z</time>
      </trkpt>
    </trkseg>
  </trk>
</gpx>